sensor_id;sensor_type;location;lat;lon;timestamp;temperature;humidity
11126;DHT22;5617;54.046;10.676;2023-02-28T00:01:14;4.30;99.90
11126;DHT22;5617;54.046;10.676;2023-02-28T00:03:24;4.30;99.90
11126;DHT22;5617;54.046;10.676;2023-02-28T00:05:33;4.30;99.90
11126;DHT22;5617;54.046;10.676;2023-02-28T00:07:41;4.30;99.90
11126;DHT22;5617;54.046;10.676;2023-02-28T00:09:49;4.40;99.90
11126;DHT22;5617;54.046;10.676;2023-02-28T00:11:57;4.40;99.90
11126;DHT22;5617;54.046;10.676;2023-02-28T00:14:04;4.40;99.90
11126;DHT22;5617;54.046;10.676;2023-02-28T00:16:14;4.40;99.90
11126;DHT22;5617;54.046;10.676;2023-02-28T00:18:23;4.40;99.90
11126;DHT22;5617;54.046;10.676;2023-02-28T00:20:30;4.30;99.90
11126;DHT22;5617;54.046;10.676;2023-02-28T00:22:40;4.40;99.90
11126;DHT22;5617;54.046;10.676;2023-02-28T00:24:48;4.30;99.90
11126;DHT22;5617;54.046;10.676;2023-02-28T00:26:56;4.30;99.90
11126;DHT22;5617;54.046;10.676;2023-02-28T00:29:03;4.30;99.90
11126;DHT22;5617;54.046;10.676;2023-02-28T00:31:11;4.40;99.90
11126;DHT22;5617;54.046;10.676;2023-02-28T00:33:19;4.40;99.90
11126;DHT22;5617;54.046;10.676;2023-02-28T00:35:28;4.40;99.90
11126;DHT22;5617;54.046;10.676;2023-02-28T00:37:36;4.40;99.90
11126;DHT22;5617;54.046;10.676;2023-02-28T00:39:44;4.40;99.90
11126;DHT22;5617;54.046;10.676;2023-02-28T00:41:52;4.40;99.90
11126;DHT22;5617;54.046;10.676;2023-02-28T00:44:00;4.40;99.90
11126;DHT22;5617;54.046;10.676;2023-02-28T00:46:08;4.40;99.90
11126;DHT22;5617;54.046;10.676;2023-02-28T00:48:15;4.30;99.90
11126;DHT22;5617;54.046;10.676;2023-02-28T00:50:25;4.30;99.90
11126;DHT22;5617;54.046;10.676;2023-02-28T00:52:34;4.30;99.90
11126;DHT22;5617;54.046;10.676;2023-02-28T00:54:42;4.30;99.90
11126;DHT22;5617;54.046;10.676;2023-02-28T00:56:50;4.30;99.90
11126;DHT22;5617;54.046;10.676;2023-02-28T00:58:57;4.30;99.90
11126;DHT22;5617;54.046;10.676;2023-02-28T01:01:05;4.30;99.90
11126;DHT22;5617;54.046;10.676;2023-02-28T01:03:13;4.20;99.90
11126;DHT22;5617;54.046;10.676;2023-02-28T01:05:20;4.20;99.90
11126;DHT22;5617;54.046;10.676;2023-02-28T01:07:28;4.20;99.90
11126;DHT22;5617;54.046;10.676;2023-02-28T01:09:37;4.20;99.90
11126;DHT22;5617;54.046;10.676;2023-02-28T01:11:44;4.20;99.90
11126;DHT22;5617;54.046;10.676;2023-02-28T01:13:52;4.20;99.90
11126;DHT22;5617;54.046;10.676;2023-02-28T01:15:59;4.20;99.90
11126;DHT22;5617;54.046;10.676;2023-02-28T01:18:07;4.20;99.90
11126;DHT22;5617;54.046;10.676;2023-02-28T01:20:15;4.10;99.90
11126;DHT22;5617;54.046;10.676;2023-02-28T01:22:23;4.10;99.90
11126;DHT22;5617;54.046;10.676;2023-02-28T01:24:30;4.10;99.90
11126;DHT22;5617;54.046;10.676;2023-02-28T01:26:39;4.10;99.90
11126;DHT22;5617;54.046;10.676;2023-02-28T01:28:48;4.10;99.90
11126;DHT22;5617;54.046;10.676;2023-02-28T01:30:55;4.10;99.90
11126;DHT22;5617;54.046;10.676;2023-02-28T01:33:03;4.10;99.90
11126;DHT22;5617;54.046;10.676;2023-02-28T01:35:11;4.20;99.90
11126;DHT22;5617;54.046;10.676;2023-02-28T01:37:18;4.20;99.90
11126;DHT22;5617;54.046;10.676;2023-02-28T01:39:26;4.20;99.90
11126;DHT22;5617;54.046;10.676;2023-02-28T01:41:34;4.20;99.90
11126;DHT22;5617;54.046;10.676;2023-02-28T01:43:58;4.20;99.90
11126;DHT22;5617;54.046;10.676;2023-02-28T01:46:10;4.10;99.90
11126;DHT22;5617;54.046;10.676;2023-02-28T01:48:18;4.10;99.90
11126;DHT22;5617;54.046;10.676;2023-02-28T01:50:31;4.10;99.90
11126;DHT22;5617;54.046;10.676;2023-02-28T01:52:42;4.10;99.90
11126;DHT22;5617;54.046;10.676;2023-02-28T01:54:52;4.10;99.90
11126;DHT22;5617;54.046;10.676;2023-02-28T01:57:03;4.20;99.90
11126;DHT22;5617;54.046;10.676;2023-02-28T01:59:20;4.00;99.90
11126;DHT22;5617;54.046;10.676;2023-02-28T02:01:29;4.00;99.90
11126;DHT22;5617;54.046;10.676;2023-02-28T02:03:38;4.00;99.90
11126;DHT22;5617;54.046;10.676;2023-02-28T02:05:46;4.00;99.90
11126;DHT22;5617;54.046;10.676;2023-02-28T02:07:56;4.00;99.90
11126;DHT22;5617;54.046;10.676;2023-02-28T02:10:06;4.00;99.90
11126;DHT22;5617;54.046;10.676;2023-02-28T02:12:26;4.00;99.90
11126;DHT22;5617;54.046;10.676;2023-02-28T02:14:48;4.00;99.90
11126;DHT22;5617;54.046;10.676;2023-02-28T02:17:18;4.00;99.90
11126;DHT22;5617;54.046;10.676;2023-02-28T02:20:09;4.00;99.90
11126;DHT22;5617;54.046;10.676;2023-02-28T02:25:12;4.00;99.90
11126;DHT22;5617;54.046;10.676;2023-02-28T02:27:28;4.00;99.90
11126;DHT22;5617;54.046;10.676;2023-02-28T02:29:52;4.00;99.90
11126;DHT22;5617;54.046;10.676;2023-02-28T02:32:33;4.00;99.90
11126;DHT22;5617;54.046;10.676;2023-02-28T02:34:56;4.10;99.90
11126;DHT22;5617;54.046;10.676;2023-02-28T02:37:13;4.10;99.90
11126;DHT22;5617;54.046;10.676;2023-02-28T02:39:28;4.10;99.90
11126;DHT22;5617;54.046;10.676;2023-02-28T02:41:41;4.10;99.90
11126;DHT22;5617;54.046;10.676;2023-02-28T02:43:56;4.10;99.90
11126;DHT22;5617;54.046;10.676;2023-02-28T02:46:08;4.10;99.90
11126;DHT22;5617;54.046;10.676;2023-02-28T02:48:19;4.10;99.90
11126;DHT22;5617;54.046;10.676;2023-02-28T02:50:33;4.20;99.90
11126;DHT22;5617;54.046;10.676;2023-02-28T02:52:45;4.20;99.90
11126;DHT22;5617;54.046;10.676;2023-02-28T02:54:55;4.20;99.90
11126;DHT22;5617;54.046;10.676;2023-02-28T02:57:08;4.10;99.90
11126;DHT22;5617;54.046;10.676;2023-02-28T02:59:20;4.10;99.90
11126;DHT22;5617;54.046;10.676;2023-02-28T03:01:29;4.10;99.90
11126;DHT22;5617;54.046;10.676;2023-02-28T03:03:38;4.10;99.90
11126;DHT22;5617;54.046;10.676;2023-02-28T03:05:49;4.10;99.90
11126;DHT22;5617;54.046;10.676;2023-02-28T03:07:56;4.10;99.90
11126;DHT22;5617;54.046;10.676;2023-02-28T03:10:27;4.00;99.90
11126;DHT22;5617;54.046;10.676;2023-02-28T03:12:47;4.00;99.90
11126;DHT22;5617;54.046;10.676;2023-02-28T03:15:08;3.90;99.90
11126;DHT22;5617;54.046;10.676;2023-02-28T03:17:45;3.90;99.90
11126;DHT22;5617;54.046;10.676;2023-02-28T03:20:04;3.90;99.90
11126;DHT22;5617;54.046;10.676;2023-02-28T03:22:36;3.90;99.90
11126;DHT22;5617;54.046;10.676;2023-02-28T03:24:52;3.80;99.90
11126;DHT22;5617;54.046;10.676;2023-02-28T03:27:06;3.70;99.90
11126;DHT22;5617;54.046;10.676;2023-02-28T03:29:19;3.70;99.90
11126;DHT22;5617;54.046;10.676;2023-02-28T03:31:31;3.70;99.90
11126;DHT22;5617;54.046;10.676;2023-02-28T03:33:44;3.60;99.90
11126;DHT22;5617;54.046;10.676;2023-02-28T03:36:04;3.60;99.90
11126;DHT22;5617;54.046;10.676;2023-02-28T03:38:17;3.60;99.90
11126;DHT22;5617;54.046;10.676;2023-02-28T03:40:30;3.50;99.90
11126;DHT22;5617;54.046;10.676;2023-02-28T03:42:41;3.50;99.90
11126;DHT22;5617;54.046;10.676;2023-02-28T03:44:54;3.40;99.90
11126;DHT22;5617;54.046;10.676;2023-02-28T03:47:06;3.40;99.90
11126;DHT22;5617;54.046;10.676;2023-02-28T03:49:18;3.30;99.90
11126;DHT22;5617;54.046;10.676;2023-02-28T03:51:29;3.30;99.90
11126;DHT22;5617;54.046;10.676;2023-02-28T03:53:42;3.20;99.90
11126;DHT22;5617;54.046;10.676;2023-02-28T03:55:53;3.10;99.90
11126;DHT22;5617;54.046;10.676;2023-02-28T03:58:08;3.10;99.90
11126;DHT22;5617;54.046;10.676;2023-02-28T04:00:21;3.00;99.90
11126;DHT22;5617;54.046;10.676;2023-02-28T04:02:34;2.80;99.90
11126;DHT22;5617;54.046;10.676;2023-02-28T04:04:42;2.70;99.90
11126;DHT22;5617;54.046;10.676;2023-02-28T04:07:01;2.60;99.90
11126;DHT22;5617;54.046;10.676;2023-02-28T04:09:13;2.60;99.90
11126;DHT22;5617;54.046;10.676;2023-02-28T04:11:23;2.60;99.90
11126;DHT22;5617;54.046;10.676;2023-02-28T04:13:30;2.70;99.90
11126;DHT22;5617;54.046;10.676;2023-02-28T04:15:38;2.60;99.90
11126;DHT22;5617;54.046;10.676;2023-02-28T04:17:45;2.50;99.90
11126;DHT22;5617;54.046;10.676;2023-02-28T04:19:53;2.40;99.90
11126;DHT22;5617;54.046;10.676;2023-02-28T04:22:03;2.40;99.90
11126;DHT22;5617;54.046;10.676;2023-02-28T04:24:14;2.30;99.90
11126;DHT22;5617;54.046;10.676;2023-02-28T04:26:22;2.20;99.90
11126;DHT22;5617;54.046;10.676;2023-02-28T04:28:30;2.20;99.90
11126;DHT22;5617;54.046;10.676;2023-02-28T04:30:37;2.20;99.90
11126;DHT22;5617;54.046;10.676;2023-02-28T04:32:45;2.10;99.90
11126;DHT22;5617;54.046;10.676;2023-02-28T04:34:53;2.10;99.90
11126;DHT22;5617;54.046;10.676;2023-02-28T04:37:00;2.10;99.90
11126;DHT22;5617;54.046;10.676;2023-02-28T04:39:09;2.10;99.90
11126;DHT22;5617;54.046;10.676;2023-02-28T04:41:18;2.00;99.90
11126;DHT22;5617;54.046;10.676;2023-02-28T04:43:26;2.00;99.90
11126;DHT22;5617;54.046;10.676;2023-02-28T04:45:35;2.00;99.90
11126;DHT22;5617;54.046;10.676;2023-02-28T04:47:42;2.00;99.90
11126;DHT22;5617;54.046;10.676;2023-02-28T04:49:50;2.00;99.90
11126;DHT22;5617;54.046;10.676;2023-02-28T04:51:57;1.90;99.90
11126;DHT22;5617;54.046;10.676;2023-02-28T04:54:05;1.90;99.90
11126;DHT22;5617;54.046;10.676;2023-02-28T04:56:14;1.90;99.90
11126;DHT22;5617;54.046;10.676;2023-02-28T04:58:23;1.90;99.90
11126;DHT22;5617;54.046;10.676;2023-02-28T05:00:31;1.80;99.90
11126;DHT22;5617;54.046;10.676;2023-02-28T05:02:39;1.80;99.90
11126;DHT22;5617;54.046;10.676;2023-02-28T05:04:46;1.80;99.90
11126;DHT22;5617;54.046;10.676;2023-02-28T05:06:54;1.90;99.90
11126;DHT22;5617;54.046;10.676;2023-02-28T05:09:01;1.90;99.90
11126;DHT22;5617;54.046;10.676;2023-02-28T05:11:15;1.90;99.90
11126;DHT22;5617;54.046;10.676;2023-02-28T05:13:24;1.90;99.90
11126;DHT22;5617;54.046;10.676;2023-02-28T05:15:31;1.90;99.90
11126;DHT22;5617;54.046;10.676;2023-02-28T05:17:39;1.90;99.90
11126;DHT22;5617;54.046;10.676;2023-02-28T05:19:47;2.00;99.90
11126;DHT22;5617;54.046;10.676;2023-02-28T05:21:54;2.00;99.90
11126;DHT22;5617;54.046;10.676;2023-02-28T05:24:04;2.00;99.90
11126;DHT22;5617;54.046;10.676;2023-02-28T05:26:12;2.00;99.90
11126;DHT22;5617;54.046;10.676;2023-02-28T05:28:19;2.00;99.90
11126;DHT22;5617;54.046;10.676;2023-02-28T05:30:29;2.00;99.90
11126;DHT22;5617;54.046;10.676;2023-02-28T05:32:38;2.00;99.90
11126;DHT22;5617;54.046;10.676;2023-02-28T05:34:48;2.00;99.90
11126;DHT22;5617;54.046;10.676;2023-02-28T05:36:59;2.00;99.90
11126;DHT22;5617;54.046;10.676;2023-02-28T05:39:07;2.00;99.90
11126;DHT22;5617;54.046;10.676;2023-02-28T05:41:19;1.90;99.90
11126;DHT22;5617;54.046;10.676;2023-02-28T05:43:27;1.90;99.90
11126;DHT22;5617;54.046;10.676;2023-02-28T05:45:37;1.90;99.90
11126;DHT22;5617;54.046;10.676;2023-02-28T05:47:44;1.90;99.90
11126;DHT22;5617;54.046;10.676;2023-02-28T05:49:52;1.80;99.90
11126;DHT22;5617;54.046;10.676;2023-02-28T05:51:59;1.80;99.90
11126;DHT22;5617;54.046;10.676;2023-02-28T05:54:07;1.80;99.90
11126;DHT22;5617;54.046;10.676;2023-02-28T05:56:15;1.80;99.90
11126;DHT22;5617;54.046;10.676;2023-02-28T05:58:23;1.80;99.90
11126;DHT22;5617;54.046;10.676;2023-02-28T06:00:31;1.70;99.90
11126;DHT22;5617;54.046;10.676;2023-02-28T06:02:40;1.60;99.90
11126;DHT22;5617;54.046;10.676;2023-02-28T06:04:48;1.60;99.90
11126;DHT22;5617;54.046;10.676;2023-02-28T06:06:56;1.60;99.90
11126;DHT22;5617;54.046;10.676;2023-02-28T06:09:04;1.50;99.90
11126;DHT22;5617;54.046;10.676;2023-02-28T06:11:12;1.50;99.90
11126;DHT22;5617;54.046;10.676;2023-02-28T06:13:20;1.50;99.90
11126;DHT22;5617;54.046;10.676;2023-02-28T06:15:27;1.40;99.90
11126;DHT22;5617;54.046;10.676;2023-02-28T06:17:35;1.40;99.90
11126;DHT22;5617;54.046;10.676;2023-02-28T06:19:44;1.40;99.90
11126;DHT22;5617;54.046;10.676;2023-02-28T06:21:52;1.40;99.90
11126;DHT22;5617;54.046;10.676;2023-02-28T06:24:01;1.40;99.90
11126;DHT22;5617;54.046;10.676;2023-02-28T06:26:10;1.40;99.90
11126;DHT22;5617;54.046;10.676;2023-02-28T06:28:18;1.30;99.90
11126;DHT22;5617;54.046;10.676;2023-02-28T06:30:25;1.30;99.90
11126;DHT22;5617;54.046;10.676;2023-02-28T06:32:34;1.30;99.90
11126;DHT22;5617;54.046;10.676;2023-02-28T06:34:43;1.20;99.90
11126;DHT22;5617;54.046;10.676;2023-02-28T06:36:51;1.30;99.90
11126;DHT22;5617;54.046;10.676;2023-02-28T06:38:59;1.30;99.90
11126;DHT22;5617;54.046;10.676;2023-02-28T06:41:07;1.20;99.90
11126;DHT22;5617;54.046;10.676;2023-02-28T06:43:15;1.30;99.90
11126;DHT22;5617;54.046;10.676;2023-02-28T06:45:23;1.20;99.90
11126;DHT22;5617;54.046;10.676;2023-02-28T06:47:32;1.20;99.90
11126;DHT22;5617;54.046;10.676;2023-02-28T06:49:39;1.20;99.90
11126;DHT22;5617;54.046;10.676;2023-02-28T06:51:48;1.20;99.90
11126;DHT22;5617;54.046;10.676;2023-02-28T06:53:56;1.20;99.90
11126;DHT22;5617;54.046;10.676;2023-02-28T06:56:06;1.20;99.90
11126;DHT22;5617;54.046;10.676;2023-02-28T06:58:14;1.20;99.90
11126;DHT22;5617;54.046;10.676;2023-02-28T07:00:24;1.30;99.90
11126;DHT22;5617;54.046;10.676;2023-02-28T07:02:32;1.30;99.90
11126;DHT22;5617;54.046;10.676;2023-02-28T07:04:42;1.30;99.90
11126;DHT22;5617;54.046;10.676;2023-02-28T07:07:03;1.30;99.90
11126;DHT22;5617;54.046;10.676;2023-02-28T07:09:13;1.40;99.90
11126;DHT22;5617;54.046;10.676;2023-02-28T07:11:22;1.50;99.90
11126;DHT22;5617;54.046;10.676;2023-02-28T07:13:31;1.60;99.90
11126;DHT22;5617;54.046;10.676;2023-02-28T07:15:39;1.60;99.90
11126;DHT22;5617;54.046;10.676;2023-02-28T07:17:47;1.70;99.90
11126;DHT22;5617;54.046;10.676;2023-02-28T07:19:55;1.70;99.90
11126;DHT22;5617;54.046;10.676;2023-02-28T07:22:04;1.80;99.90
11126;DHT22;5617;54.046;10.676;2023-02-28T07:24:11;1.90;99.90
11126;DHT22;5617;54.046;10.676;2023-02-28T07:26:22;2.00;99.90
11126;DHT22;5617;54.046;10.676;2023-02-28T07:28:30;2.10;99.90
11126;DHT22;5617;54.046;10.676;2023-02-28T07:30:37;2.10;99.90
11126;DHT22;5617;54.046;10.676;2023-02-28T07:32:46;2.20;99.90
11126;DHT22;5617;54.046;10.676;2023-02-28T07:34:54;2.30;99.90
11126;DHT22;5617;54.046;10.676;2023-02-28T07:37:01;2.40;99.90
11126;DHT22;5617;54.046;10.676;2023-02-28T07:39:11;2.50;99.90
11126;DHT22;5617;54.046;10.676;2023-02-28T07:41:20;2.60;99.90
11126;DHT22;5617;54.046;10.676;2023-02-28T07:43:29;2.70;99.90
11126;DHT22;5617;54.046;10.676;2023-02-28T07:45:37;2.80;99.90
11126;DHT22;5617;54.046;10.676;2023-02-28T07:47:44;3.00;99.90
11126;DHT22;5617;54.046;10.676;2023-02-28T07:49:52;3.10;99.90
11126;DHT22;5617;54.046;10.676;2023-02-28T07:52:00;3.20;99.90
11126;DHT22;5617;54.046;10.676;2023-02-28T07:54:10;3.30;99.90
11126;DHT22;5617;54.046;10.676;2023-02-28T07:56:19;3.40;99.90
11126;DHT22;5617;54.046;10.676;2023-02-28T07:58:27;3.50;99.90
11126;DHT22;5617;54.046;10.676;2023-02-28T08:00:36;3.60;99.90
11126;DHT22;5617;54.046;10.676;2023-02-28T08:02:43;3.80;99.90
11126;DHT22;5617;54.046;10.676;2023-02-28T08:04:51;3.80;99.90
11126;DHT22;5617;54.046;10.676;2023-02-28T08:06:59;3.90;99.90
11126;DHT22;5617;54.046;10.676;2023-02-28T08:09:06;4.10;99.90
11126;DHT22;5617;54.046;10.676;2023-02-28T08:11:14;4.20;99.90
11126;DHT22;5617;54.046;10.676;2023-02-28T08:13:24;4.40;99.90
11126;DHT22;5617;54.046;10.676;2023-02-28T08:15:31;4.40;99.90
11126;DHT22;5617;54.046;10.676;2023-02-28T08:17:39;4.60;99.90
11126;DHT22;5617;54.046;10.676;2023-02-28T08:19:46;4.70;99.90
11126;DHT22;5617;54.046;10.676;2023-02-28T08:21:54;4.80;99.90
11126;DHT22;5617;54.046;10.676;2023-02-28T08:24:02;5.00;99.90
11126;DHT22;5617;54.046;10.676;2023-02-28T08:26:10;5.20;99.90
11126;DHT22;5617;54.046;10.676;2023-02-28T08:28:17;5.40;99.90
11126;DHT22;5617;54.046;10.676;2023-02-28T08:30:26;5.50;99.90
11126;DHT22;5617;54.046;10.676;2023-02-28T08:32:34;5.60;99.90
11126;DHT22;5617;54.046;10.676;2023-02-28T08:34:41;5.80;99.90
11126;DHT22;5617;54.046;10.676;2023-02-28T08:36:49;5.90;99.90
11126;DHT22;5617;54.046;10.676;2023-02-28T08:38:56;6.10;99.90
11126;DHT22;5617;54.046;10.676;2023-02-28T08:41:06;6.20;99.90
11126;DHT22;5617;54.046;10.676;2023-02-28T08:43:15;6.40;99.90
11126;DHT22;5617;54.046;10.676;2023-02-28T08:45:22;6.50;99.90
11126;DHT22;5617;54.046;10.676;2023-02-28T08:47:31;6.50;99.90
11126;DHT22;5617;54.046;10.676;2023-02-28T08:49:39;6.70;99.90
11126;DHT22;5617;54.046;10.676;2023-02-28T08:51:47;6.80;99.90
11126;DHT22;5617;54.046;10.676;2023-02-28T08:53:57;7.00;99.90
11126;DHT22;5617;54.046;10.676;2023-02-28T08:56:09;7.10;99.90
11126;DHT22;5617;54.046;10.676;2023-02-28T08:58:17;7.30;99.90
11126;DHT22;5617;54.046;10.676;2023-02-28T09:00:25;7.30;99.90
11126;DHT22;5617;54.046;10.676;2023-02-28T09:02:34;7.30;99.90
11126;DHT22;5617;54.046;10.676;2023-02-28T09:04:42;7.30;99.90
11126;DHT22;5617;54.046;10.676;2023-02-28T09:06:51;7.30;99.90
11126;DHT22;5617;54.046;10.676;2023-02-28T09:08:59;7.50;99.90
11126;DHT22;5617;54.046;10.676;2023-02-28T09:11:08;7.50;99.90
11126;DHT22;5617;54.046;10.676;2023-02-28T09:13:16;7.60;99.90
11126;DHT22;5617;54.046;10.676;2023-02-28T09:15:23;7.70;99.90
11126;DHT22;5617;54.046;10.676;2023-02-28T09:17:31;7.80;99.90
11126;DHT22;5617;54.046;10.676;2023-02-28T09:19:41;7.90;99.90
11126;DHT22;5617;54.046;10.676;2023-02-28T09:21:48;8.00;99.90
11126;DHT22;5617;54.046;10.676;2023-02-28T09:23:56;8.10;99.90
11126;DHT22;5617;54.046;10.676;2023-02-28T09:26:05;8.20;99.90
11126;DHT22;5617;54.046;10.676;2023-02-28T09:28:12;8.30;99.90
11126;DHT22;5617;54.046;10.676;2023-02-28T09:30:21;8.50;99.90
11126;DHT22;5617;54.046;10.676;2023-02-28T09:32:29;8.60;99.90
11126;DHT22;5617;54.046;10.676;2023-02-28T09:34:38;8.80;99.90
11126;DHT22;5617;54.046;10.676;2023-02-28T09:36:47;9.00;99.90
11126;DHT22;5617;54.046;10.676;2023-02-28T09:38:55;9.20;99.80
11126;DHT22;5617;54.046;10.676;2023-02-28T09:41:10;9.30;99.40
11126;DHT22;5617;54.046;10.676;2023-02-28T09:43:21;9.40;99.60
11126;DHT22;5617;54.046;10.676;2023-02-28T09:45:33;9.60;99.20
11126;DHT22;5617;54.046;10.676;2023-02-28T09:47:44;9.60;98.30
11126;DHT22;5617;54.046;10.676;2023-02-28T09:49:52;9.60;98.60
11126;DHT22;5617;54.046;10.676;2023-02-28T09:52:03;9.60;98.30
11126;DHT22;5617;54.046;10.676;2023-02-28T09:54:15;9.70;98.20
11126;DHT22;5617;54.046;10.676;2023-02-28T09:56:29;9.80;97.90
11126;DHT22;5617;54.046;10.676;2023-02-28T09:58:41;9.90;97.50
11126;DHT22;5617;54.046;10.676;2023-02-28T10:00:58;9.90;96.90
11126;DHT22;5617;54.046;10.676;2023-02-28T10:03:27;9.90;97.10
11126;DHT22;5617;54.046;10.676;2023-02-28T10:05:39;10.20;97.40
11126;DHT22;5617;54.046;10.676;2023-02-28T10:08:00;10.20;97.60
11126;DHT22;5617;54.046;10.676;2023-02-28T10:10:20;10.20;96.50
11126;DHT22;5617;54.046;10.676;2023-02-28T10:12:30;10.30;96.90
11126;DHT22;5617;54.046;10.676;2023-02-28T10:14:39;10.50;97.10
11126;DHT22;5617;54.046;10.676;2023-02-28T10:16:54;10.60;96.60
11126;DHT22;5617;54.046;10.676;2023-02-28T10:19:05;10.60;96.80
11126;DHT22;5617;54.046;10.676;2023-02-28T10:21:21;10.70;96.70
11126;DHT22;5617;54.046;10.676;2023-02-28T10:23:33;10.80;96.70
11126;DHT22;5617;54.046;10.676;2023-02-28T10:25:45;11.00;96.40
11126;DHT22;5617;54.046;10.676;2023-02-28T10:28:00;11.20;96.00
11126;DHT22;5617;54.046;10.676;2023-02-28T10:30:10;11.10;95.40
11126;DHT22;5617;54.046;10.676;2023-02-28T10:32:21;11.10;94.90
11126;DHT22;5617;54.046;10.676;2023-02-28T10:34:30;11.10;95.30
11126;DHT22;5617;54.046;10.676;2023-02-28T10:36:38;11.00;95.40
11126;DHT22;5617;54.046;10.676;2023-02-28T10:38:48;11.10;95.20
11126;DHT22;5617;54.046;10.676;2023-02-28T10:41:07;11.20;95.30
11126;DHT22;5617;54.046;10.676;2023-02-28T10:43:21;11.40;94.90
11126;DHT22;5617;54.046;10.676;2023-02-28T10:45:30;11.40;94.80
11126;DHT22;5617;54.046;10.676;2023-02-28T10:47:49;11.50;94.80
11126;DHT22;5617;54.046;10.676;2023-02-28T10:49:57;11.60;94.80
11126;DHT22;5617;54.046;10.676;2023-02-28T10:52:09;11.80;94.60
11126;DHT22;5617;54.046;10.676;2023-02-28T10:54:28;11.90;94.30
11126;DHT22;5617;54.046;10.676;2023-02-28T10:56:36;12.00;94.20
11126;DHT22;5617;54.046;10.676;2023-02-28T10:58:49;12.00;93.20
11126;DHT22;5617;54.046;10.676;2023-02-28T11:00:58;11.90;93.30
11126;DHT22;5617;54.046;10.676;2023-02-28T11:03:24;12.10;93.30
11126;DHT22;5617;54.046;10.676;2023-02-28T11:05:33;12.30;93.90
11126;DHT22;5617;54.046;10.676;2023-02-28T11:07:41;12.50;93.40
11126;DHT22;5617;54.046;10.676;2023-02-28T11:09:51;12.60;93.40
11126;DHT22;5617;54.046;10.676;2023-02-28T11:12:00;12.70;93.00
11126;DHT22;5617;54.046;10.676;2023-02-28T11:14:17;12.90;92.90
11126;DHT22;5617;54.046;10.676;2023-02-28T11:16:32;13.00;92.90
11126;DHT22;5617;54.046;10.676;2023-02-28T11:18:44;13.10;92.20
11126;DHT22;5617;54.046;10.676;2023-02-28T11:20:56;12.70;91.90
11126;DHT22;5617;54.046;10.676;2023-02-28T11:23:05;12.60;91.60
11126;DHT22;5617;54.046;10.676;2023-02-28T11:25:25;12.70;92.10
11126;DHT22;5617;54.046;10.676;2023-02-28T11:27:46;12.70;92.00
11126;DHT22;5617;54.046;10.676;2023-02-28T11:29:54;13.00;91.80
11126;DHT22;5617;54.046;10.676;2023-02-28T11:32:13;13.10;91.60
11126;DHT22;5617;54.046;10.676;2023-02-28T11:34:24;13.00;91.30
11126;DHT22;5617;54.046;10.676;2023-02-28T11:36:33;12.90;90.50
11126;DHT22;5617;54.046;10.676;2023-02-28T11:38:42;12.70;90.00
11126;DHT22;5617;54.046;10.676;2023-02-28T11:41:03;12.80;90.60
11126;DHT22;5617;54.046;10.676;2023-02-28T11:43:23;13.00;90.70
11126;DHT22;5617;54.046;10.676;2023-02-28T11:45:44;13.00;90.50
11126;DHT22;5617;54.046;10.676;2023-02-28T11:47:59;13.10;90.70
11126;DHT22;5617;54.046;10.676;2023-02-28T11:50:20;13.10;90.30
11126;DHT22;5617;54.046;10.676;2023-02-28T11:52:36;13.00;90.20
11126;DHT22;5617;54.046;10.676;2023-02-28T11:55:01;13.00;90.40
11126;DHT22;5617;54.046;10.676;2023-02-28T11:57:27;12.90;90.00
11126;DHT22;5617;54.046;10.676;2023-02-28T11:59:51;12.90;88.60
11126;DHT22;5617;54.046;10.676;2023-02-28T12:02:19;12.90;88.50
11126;DHT22;5617;54.046;10.676;2023-02-28T12:04:35;12.90;88.60
11126;DHT22;5617;54.046;10.676;2023-02-28T12:06:51;12.90;89.20
11126;DHT22;5617;54.046;10.676;2023-02-28T12:09:12;12.90;89.00
11126;DHT22;5617;54.046;10.676;2023-02-28T12:11:30;12.70;88.90
11126;DHT22;5617;54.046;10.676;2023-02-28T12:13:48;12.80;88.70
11126;DHT22;5617;54.046;10.676;2023-02-28T12:18:47;12.90;87.70
11126;DHT22;5617;54.046;10.676;2023-02-28T12:21:08;12.90;88.30
11126;DHT22;5617;54.046;10.676;2023-02-28T12:23:40;13.00;88.40
11126;DHT22;5617;54.046;10.676;2023-02-28T12:26:00;13.00;87.60
11126;DHT22;5617;54.046;10.676;2023-02-28T12:28:12;12.90;88.30
11126;DHT22;5617;54.046;10.676;2023-02-28T12:30:25;13.20;89.00
11126;DHT22;5617;54.046;10.676;2023-02-28T12:32:37;13.10;87.70
11126;DHT22;5617;54.046;10.676;2023-02-28T12:34:49;13.00;88.50
11126;DHT22;5617;54.046;10.676;2023-02-28T12:37:03;13.00;88.60
11126;DHT22;5617;54.046;10.676;2023-02-28T12:39:16;13.10;88.10
11126;DHT22;5617;54.046;10.676;2023-02-28T12:41:31;13.10;88.00
11126;DHT22;5617;54.046;10.676;2023-02-28T12:43:43;13.30;87.40
11126;DHT22;5617;54.046;10.676;2023-02-28T12:45:57;13.40;86.40
11126;DHT22;5617;54.046;10.676;2023-02-28T12:48:08;13.40;85.80
11126;DHT22;5617;54.046;10.676;2023-02-28T12:50:18;13.50;85.60
11126;DHT22;5617;54.046;10.676;2023-02-28T12:52:32;13.40;86.00
11126;DHT22;5617;54.046;10.676;2023-02-28T12:54:46;13.60;86.30
11126;DHT22;5617;54.046;10.676;2023-02-28T12:57:01;13.70;86.00
11126;DHT22;5617;54.046;10.676;2023-02-28T12:59:17;13.80;86.20
11126;DHT22;5617;54.046;10.676;2023-02-28T13:01:42;13.90;86.00
11126;DHT22;5617;54.046;10.676;2023-02-28T13:04:14;13.90;85.00
11126;DHT22;5617;54.046;10.676;2023-02-28T13:06:45;13.90;84.50
11126;DHT22;5617;54.046;10.676;2023-02-28T13:09:03;13.80;83.00
11126;DHT22;5617;54.046;10.676;2023-02-28T13:11:24;13.80;83.40
11126;DHT22;5617;54.046;10.676;2023-02-28T13:13:32;13.80;84.00
11126;DHT22;5617;54.046;10.676;2023-02-28T13:15:40;13.90;84.80
11126;DHT22;5617;54.046;10.676;2023-02-28T13:17:54;14.10;84.50
11126;DHT22;5617;54.046;10.676;2023-02-28T13:20:02;14.10;84.50
11126;DHT22;5617;54.046;10.676;2023-02-28T13:22:19;14.10;84.90
11126;DHT22;5617;54.046;10.676;2023-02-28T13:24:40;14.10;84.40
11126;DHT22;5617;54.046;10.676;2023-02-28T13:27:11;14.00;83.70
11126;DHT22;5617;54.046;10.676;2023-02-28T13:29:28;14.00;84.50
11126;DHT22;5617;54.046;10.676;2023-02-28T13:34:24;14.10;83.00
11126;DHT22;5617;54.046;10.676;2023-02-28T13:36:32;14.10;83.00
11126;DHT22;5617;54.046;10.676;2023-02-28T13:38:41;14.10;83.00
11126;DHT22;5617;54.046;10.676;2023-02-28T13:40:49;14.10;80.90
11126;DHT22;5617;54.046;10.676;2023-02-28T13:42:57;14.00;81.20
11126;DHT22;5617;54.046;10.676;2023-02-28T13:45:21;13.90;80.50
11126;DHT22;5617;54.046;10.676;2023-02-28T13:47:31;13.70;81.00
11126;DHT22;5617;54.046;10.676;2023-02-28T13:49:42;13.50;81.90
11126;DHT22;5617;54.046;10.676;2023-02-28T13:51:50;13.40;81.40
11126;DHT22;5617;54.046;10.676;2023-02-28T13:54:04;13.50;81.20
11126;DHT22;5617;54.046;10.676;2023-02-28T13:56:39;13.50;80.60
11126;DHT22;5617;54.046;10.676;2023-02-28T13:58:54;13.60;81.50
11126;DHT22;5617;54.046;10.676;2023-02-28T14:01:11;13.80;81.70
11126;DHT22;5617;54.046;10.676;2023-02-28T14:03:44;13.80;80.40
11126;DHT22;5617;54.046;10.676;2023-02-28T14:06:17;14.00;81.50
11126;DHT22;5617;54.046;10.676;2023-02-28T14:08:26;14.00;81.10
11126;DHT22;5617;54.046;10.676;2023-02-28T14:10:39;13.90;79.80